Time;durP1;ratioP1;P1;durP2;ratioP2;P2;SDS_P1;SDS_P2;PMS_P1;PMS_P2;Temp;Humidity;BMP_temperature;BMP_pressure;BME280_temperature;BME280_humidity;BME280_pressure;Samples;Min_cycle;Max_cycle;Signal;HPM_P1;HPM_P2
2023/01/26 00:01:13;;;;;;;77.95;29.63;;;-0.10;99.90;;;;;;5005460;28;20483;-63
2023/01/26 00:03:39;;;;;;;72.55;27.67;;;-0.10;99.90;;;;;;5009260;28;20038;-63
2023/01/26 00:06:07;;;;;;;80.78;27.35;;;-0.10;99.90;;;;;;5008116;28;20164;-63
2023/01/26 00:08:44;;;;;;;72.13;27.02;;;0.00;99.90;;;;;;5005989;28;20045;-63
2023/01/26 00:11:12;;;;;;;75.85;27.27;;;-0.10;99.90;;;;;;5007411;28;20172;-63
2023/01/26 00:13:38;;;;;;;75.90;26.33;;;0.00;99.90;;;;;;5006707;28;20069;-63
2023/01/26 00:16:08;;;;;;;70.43;26.98;;;0.00;99.90;;;;;;5008186;28;20128;-63
2023/01/26 00:18:37;;;;;;;66.47;25.60;;;-0.10;99.90;;;;;;5007894;28;20049;-62
2023/01/26 00:21:03;;;;;;;66.20;25.23;;;0.00;99.90;;;;;;5004931;28;20538;-63
2023/01/26 00:23:31;;;;;;;68.32;25.92;;;-0.10;99.90;;;;;;5008981;28;20367;-64
2023/01/26 00:25:56;;;;;;;75.25;27.05;;;-0.10;99.90;;;;;;5007790;28;20517;-63
2023/01/26 00:28:22;;;;;;;75.13;25.70;;;0.00;99.90;;;;;;4989412;28;20153;-63
2023/01/26 00:30:48;;;;;;;73.10;26.40;;;-0.10;99.90;;;;;;5005874;28;20161;-63
2023/01/26 00:33:14;;;;;;;66.82;27.05;;;0.00;99.90;;;;;;5007497;28;20058;-63
2023/01/26 00:35:43;;;;;;;68.20;26.02;;;0.00;99.90;;;;;;5005806;28;20189;-64
2023/01/26 00:38:10;;;;;;;72.63;26.13;;;0.00;99.90;;;;;;4990375;28;20057;-63
2023/01/26 00:40:36;;;;;;;68.93;25.95;;;0.00;99.90;;;;;;4988621;28;20046;-63
2023/01/26 00:43:02;;;;;;;70.07;25.92;;;0.00;99.90;;;;;;4972596;28;20057;-63
2023/01/26 00:45:27;;;;;;;70.50;25.45;;;0.00;99.90;;;;;;5008868;28;20073;-63
2023/01/26 00:47:53;;;;;;;65.28;26.02;;;0.00;99.90;;;;;;5008405;28;20030;-63
2023/01/26 00:50:19;;;;;;;67.80;26.20;;;0.00;99.90;;;;;;5006183;28;20139;-63
2023/01/26 00:52:45;;;;;;;70.30;26.77;;;0.00;99.90;;;;;;5007086;28;20108;-64
2023/01/26 00:55:10;;;;;;;71.47;26.88;;;-0.10;99.90;;;;;;5007434;28;20120;-63
2023/01/26 00:57:36;;;;;;;73.40;26.75;;;0.00;99.90;;;;;;5009010;28;20482;-63
2023/01/26 01:00:05;;;;;;;75.85;26.20;;;0.00;99.90;;;;;;5008502;28;20037;-63
2023/01/26 01:02:30;;;;;;;72.15;26.33;;;0.00;99.90;;;;;;5008745;28;20048;-63
2023/01/26 01:04:56;;;;;;;63.15;26.13;;;0.00;99.90;;;;;;5008072;28;20057;-63
2023/01/26 01:07:22;;;;;;;76.95;27.30;;;0.00;99.90;;;;;;5007752;28;20030;-63
2023/01/26 01:09:48;;;;;;;69.22;26.75;;;0.00;99.90;;;;;;4989437;28;20413;-63
2023/01/26 01:12:14;;;;;;;69.45;26.85;;;0.00;99.90;;;;;;5008713;28;20041;-63
2023/01/26 01:14:40;;;;;;;65.93;25.98;;;0.10;99.90;;;;;;5008628;28;20493;-63
2023/01/26 01:17:05;;;;;;;63.83;24.95;;;0.00;99.90;;;;;;5006922;28;20042;-63
2023/01/26 01:19:31;;;;;;;62.33;25.73;;;0.10;99.90;;;;;;5007556;28;20076;-62
2023/01/26 01:21:57;;;;;;;62.25;24.30;;;0.20;99.90;;;;;;4991844;28;20077;-63
2023/01/26 01:24:22;;;;;;;73.55;25.38;;;0.00;99.90;;;;;;5009428;28;20119;-63
2023/01/26 01:26:48;;;;;;;79.65;26.20;;;0.10;99.90;;;;;;5007741;28;20120;-63
2023/01/26 01:29:14;;;;;;;59.28;23.77;;;0.10;99.90;;;;;;5009765;28;20495;-62
2023/01/26 01:31:42;;;;;;;59.30;23.70;;;0.10;99.90;;;;;;5010841;28;20030;-63
2023/01/26 01:34:08;;;;;;;55.45;22.33;;;0.10;99.90;;;;;;5010096;28;20046;-64
2023/01/26 01:36:33;;;;;;;63.88;23.92;;;0.10;99.90;;;;;;5008700;28;20057;-65
2023/01/26 01:39:00;;;;;;;58.20;23.88;;;0.10;99.90;;;;;;5009304;28;20038;-64
2023/01/26 01:41:26;;;;;;;55.42;23.73;;;0.10;99.90;;;;;;5009972;28;20049;-64
2023/01/26 01:44:17;;;;;;;59.22;23.92;;;0.10;99.90;;;;;;5009705;28;20121;-64
2023/01/26 01:46:56;;;;;;;55.38;21.77;;;0.20;99.90;;;;;;5010550;28;20040;-64
2023/01/26 01:49:35;;;;;;;56.17;23.02;;;0.20;99.90;;;;;;5004071;28;20034;-64
2023/01/26 01:52:07;;;;;;;55.05;23.80;;;0.10;99.90;;;;;;5009906;28;20164;-64
2023/01/26 01:54:50;;;;;;;59.00;23.13;;;0.10;99.90;;;;;;5007436;28;20045;-64
2023/01/26 01:57:27;;;;;;;54.55;22.83;;;0.20;99.90;;;;;;5008696;28;20042;-65
2023/01/26 02:00:07;;;;;;;54.83;22.60;;;0.10;99.90;;;;;;5003012;28;20513;-64
2023/01/26 02:02:35;;;;;;;60.08;24.13;;;0.20;99.90;;;;;;5010110;28;20046;-64
2023/01/26 02:05:21;;;;;;;56.00;22.35;;;0.20;99.90;;;;;;5007896;28;20084;-64
2023/01/26 02:07:49;;;;;;;56.90;23.83;;;0.20;99.90;;;;;;5008767;28;20042;-64
2023/01/26 02:10:18;;;;;;;53.35;21.95;;;0.20;99.90;;;;;;5006208;28;20100;-64
2023/01/26 02:12:55;;;;;;;51.53;22.30;;;0.20;99.90;;;;;;5008412;28;20048;-63
2023/01/26 02:15:21;;;;;;;61.22;23.67;;;0.20;99.90;;;;;;5005491;28;20064;-63
2023/01/26 02:17:47;;;;;;;57.25;23.83;;;0.20;99.90;;;;;;4991938;28;20041;-64
2023/01/26 02:20:38;;;;;;;53.35;22.50;;;0.20;99.90;;;;;;5009631;28;20240;-64
2023/01/26 02:23:19;;;;;;;66.85;24.13;;;0.20;99.90;;;;;;4992025;28;20460;-64
2023/01/26 02:25:53;;;;;;;68.95;24.95;;;0.20;99.90;;;;;;4974417;28;20405;-64
2023/01/26 02:28:26;;;;;;;62.85;23.08;;;0.20;99.90;;;;;;4992081;28;20100;-65
2023/01/26 02:30:53;;;;;;;59.42;23.55;;;0.30;99.90;;;;;;4991722;28;20042;-64
2023/01/26 02:33:25;;;;;;;66.28;23.73;;;0.30;99.90;;;;;;4990998;28;20041;-65
2023/01/26 02:35:50;;;;;;;57.25;21.40;;;0.30;99.90;;;;;;5009436;28;20084;-64
2023/01/26 02:38:18;;;;;;;57.00;21.42;;;0.30;99.90;;;;;;4988588;28;20050;-65
2023/01/26 02:40:53;;;;;;;67.20;22.77;;;0.30;99.90;;;;;;5009518;28;20406;-65
2023/01/26 02:43:18;;;;;;;52.30;21.73;;;0.30;99.90;;;;;;5009595;28;20046;-64
2023/01/26 02:45:45;;;;;;;63.38;23.70;;;0.30;99.90;;;;;;5008855;28;20580;-66
2023/01/26 02:48:10;;;;;;;61.25;21.13;;;0.30;99.90;;;;;;4991594;28;20038;-65
2023/01/26 02:50:36;;;;;;;61.90;22.10;;;0.30;99.90;;;;;;4994716;28;20042;-65
2023/01/26 02:53:02;;;;;;;60.60;20.90;;;0.30;99.90;;;;;;5009783;28;20044;-65
2023/01/26 02:55:28;;;;;;;62.60;22.67;;;0.40;99.90;;;;;;5007599;28;20410;-66
2023/01/26 02:57:57;;;;;;;64.65;21.58;;;0.40;99.90;;;;;;4990758;28;20045;-65
2023/01/26 03:00:39;;;;;;;59.30;20.90;;;0.40;99.90;;;;;;4988330;28;20046;-65
2023/01/26 03:03:15;;;;;;;58.60;21.60;;;0.40;99.90;;;;;;4973724;28;20099;-65
2023/01/26 03:05:41;;;;;;;57.55;21.50;;;0.40;99.90;;;;;;4991013;28;20096;-65
2023/01/26 03:08:07;;;;;;;64.30;22.23;;;0.40;99.90;;;;;;4973273;28;20370;-66
2023/01/26 03:10:33;;;;;;;52.00;20.27;;;0.40;99.90;;;;;;5008887;28;20037;-65
2023/01/26 03:12:59;;;;;;;51.30;19.70;;;0.40;99.90;;;;;;4991195;28;20096;-66
2023/01/26 03:15:51;;;;;;;56.00;20.17;;;0.50;99.90;;;;;;4989295;28;20103;-65
2023/01/26 03:29:28;;;;;;;47.40;18.10;;;0.40;99.90;;;;;;4991619;28;20454;-65
2023/01/26 03:31:54;;;;;;;50.92;17.30;;;0.50;99.90;;;;;;5007346;28;20034;-65
2023/01/26 03:34:20;;;;;;;52.55;17.38;;;0.50;99.90;;;;;;5006171;28;20038;-66
2023/01/26 03:36:46;;;;;;;43.28;18.13;;;0.50;99.90;;;;;;4973818;28;20038;-65
2023/01/26 03:41:06;;;;;;;62.55;19.35;;;0.50;99.90;;;;;;4989878;28;20030;-65
2023/01/26 03:58:23;;;;;;;38.72;15.40;;;0.60;99.90;;;;;;5008333;28;20563;-65
2023/01/26 04:00:49;;;;;;;39.30;15.80;;;0.60;99.90;;;;;;4988213;28;20042;-66
2023/01/26 04:08:45;;;;;;;48.35;15.75;;;0.60;99.90;;;;;;5008630;28;20096;-64
2023/01/26 04:11:12;;;;;;;37.17;14.32;;;0.60;99.90;;;;;;5007485;28;20049;-65
2023/01/26 04:21:50;;;;;;;36.30;14.20;;;0.60;99.90;;;;;;4990537;28;20080;-65
2023/01/26 04:24:16;;;;;;;54.20;16.85;;;0.60;99.90;;;;;;5005803;28;20046;-66
2023/01/26 04:26:42;;;;;;;41.28;14.65;;;0.70;99.90;;;;;;4988735;28;20533;-66
2023/01/26 04:29:11;;;;;;;38.50;15.27;;;0.60;99.90;;;;;;4991138;28;20536;-66
2023/01/26 04:31:38;;;;;;;42.95;14.88;;;0.70;99.90;;;;;;5004725;28;20068;-66
2023/01/26 04:34:06;;;;;;;52.75;15.48;;;0.70;99.90;;;;;;5008356;28;20076;-66
2023/01/26 04:36:33;;;;;;;58.28;17.00;;;0.70;99.90;;;;;;4998937;28;20061;-66
2023/01/26 04:38:59;;;;;;;40.72;15.75;;;0.70;99.90;;;;;;4988251;28;20050;-66
2023/01/26 04:41:24;;;;;;;54.05;16.48;;;0.70;99.90;;;;;;5007828;28;20091;-67
2023/01/26 04:43:50;;;;;;;50.00;15.55;;;0.70;99.90;;;;;;4989767;28;20449;-66
2023/01/26 04:46:16;;;;;;;68.18;17.58;;;0.70;99.90;;;;;;4989691;28;20112;-66
2023/01/26 04:48:42;;;;;;;42.92;16.58;;;0.70;99.90;;;;;;5005400;28;20060;-66
2023/01/26 04:51:15;;;;;;;37.08;15.25;;;0.70;99.90;;;;;;4989033;28;20057;-66
2023/01/26 04:53:41;;;;;;;58.08;16.25;;;0.80;99.90;;;;;;5005067;28;20125;-66
2023/01/26 04:56:13;;;;;;;56.58;16.35;;;0.80;99.90;;;;;;4989938;28;20045;-66
2023/01/26 04:58:39;;;;;;;40.53;15.85;;;0.80;99.90;;;;;;4996549;28;20505;-66
2023/01/26 05:01:04;;;;;;;73.13;19.10;;;0.80;99.90;;;;;;5011750;28;20050;-65
2023/01/26 05:03:31;;;;;;;39.38;17.40;;;0.80;99.90;;;;;;4993081;28;20555;-65
2023/01/26 05:05:57;;;;;;;53.95;20.00;;;0.80;99.90;;;;;;4993678;28;20593;-65
2023/01/26 05:08:23;;;;;;;79.75;21.15;;;0.80;99.90;;;;;;4991819;28;20029;-65
2023/01/26 05:10:50;;;;;;;65.82;20.15;;;0.80;99.90;;;;;;5012014;28;20507;-65
2023/01/26 05:13:16;;;;;;;80.05;19.65;;;0.80;99.90;;;;;;4995218;28;20121;-66
2023/01/26 05:15:42;;;;;;;66.70;20.20;;;0.80;99.90;;;;;;4992550;28;20506;-65
2023/01/26 05:18:09;;;;;;;65.80;20.17;;;0.80;99.90;;;;;;4994588;28;20390;-65
2023/01/26 05:20:35;;;;;;;55.90;19.15;;;0.80;99.90;;;;;;4993547;28;20053;-65
2023/01/26 05:23:01;;;;;;;55.67;19.48;;;0.80;99.90;;;;;;5011408;28;20037;-65
2023/01/26 05:25:26;;;;;;;63.58;19.92;;;0.80;99.90;;;;;;5009364;28;20463;-65
2023/01/26 05:27:52;;;;;;;49.90;18.02;;;0.80;99.90;;;;;;5011285;28;20374;-65
2023/01/26 05:30:18;;;;;;;54.92;19.70;;;0.80;99.90;;;;;;4993616;28;20038;-65
2023/01/26 05:32:44;;;;;;;44.80;17.70;;;0.90;99.90;;;;;;4993502;28;20671;-66
2023/01/26 05:35:10;;;;;;;44.08;17.67;;;0.90;99.90;;;;;;4993715;28;20034;-65
2023/01/26 05:37:36;;;;;;;43.92;18.40;;;0.90;99.90;;;;;;4990034;28;20137;-65
2023/01/26 05:40:02;;;;;;;55.33;19.08;;;0.90;99.90;;;;;;4975711;28;20040;-65
2023/01/26 05:42:28;;;;;;;59.55;19.42;;;0.90;99.90;;;;;;4990850;28;20077;-66
2023/01/26 05:44:54;;;;;;;65.05;19.45;;;0.90;99.90;;;;;;5010672;28;20131;-65
2023/01/26 05:47:20;;;;;;;57.70;19.20;;;0.90;99.90;;;;;;5010643;28;20029;-65
2023/01/26 05:49:46;;;;;;;69.63;21.55;;;0.90;99.90;;;;;;4974651;28;20045;-65
2023/01/26 05:52:17;;;;;;;56.90;20.17;;;0.90;99.90;;;;;;5006595;28;20044;-65
2023/01/26 05:54:43;;;;;;;78.45;22.13;;;0.90;99.90;;;;;;5008777;28;20577;-65
2023/01/26 05:57:09;;;;;;;69.38;21.27;;;0.90;99.90;;;;;;4973872;28;20128;-65
2023/01/26 05:59:34;;;;;;;55.97;20.15;;;0.90;99.90;;;;;;5010338;28;20080;-65
2023/01/26 06:02:00;;;;;;;83.05;20.65;;;0.90;99.90;;;;;;5007867;28;20419;-65
2023/01/26 06:04:26;;;;;;;57.80;18.48;;;0.90;99.90;;;;;;5010406;28;20045;-65
2023/01/26 06:06:56;;;;;;;50.17;19.45;;;0.90;99.90;;;;;;4992631;28;20045;-65
2023/01/26 06:09:23;;;;;;;59.80;19.38;;;0.90;99.90;;;;;;4990879;28;20116;-65
2023/01/26 06:11:49;;;;;;;65.13;19.50;;;0.90;99.90;;;;;;4990012;28;20054;-65
2023/01/26 06:14:15;;;;;;;70.03;21.00;;;0.90;99.90;;;;;;4990081;28;20048;-65
2023/01/26 06:16:40;;;;;;;92.05;22.65;;;1.00;99.90;;;;;;4992477;28;20374;-65
2023/01/26 06:19:07;;;;;;;52.55;19.55;;;0.90;99.90;;;;;;4992241;28;20057;-65
2023/01/26 06:21:33;;;;;;;71.78;21.15;;;0.90;99.90;;;;;;4992415;28;20363;-65
2023/01/26 06:23:59;;;;;;;71.00;22.55;;;1.00;99.90;;;;;;5002462;28;20525;-66
2023/01/26 06:26:25;;;;;;;57.92;20.25;;;1.00;99.90;;;;;;5010276;28;20061;-65
2023/01/26 06:28:52;;;;;;;60.78;21.50;;;0.90;99.90;;;;;;4992565;28;20301;-65
2023/01/26 06:31:18;;;;;;;62.67;20.60;;;1.00;99.90;;;;;;4990826;28;20038;-65
2023/01/26 06:33:44;;;;;;;73.47;22.05;;;1.00;99.90;;;;;;4992236;28;20034;-65
2023/01/26 06:36:12;;;;;;;66.13;21.67;;;1.00;99.90;;;;;;4990212;28;20056;-66
2023/01/26 06:38:44;;;;;;;69.72;21.38;;;1.00;99.90;;;;;;4991925;28;20037;-65
2023/01/26 06:41:10;;;;;;;62.88;20.90;;;1.00;99.90;;;;;;4978042;28;20486;-66
2023/01/26 06:43:36;;;;;;;79.53;22.02;;;0.90;99.90;;;;;;4989158;28;20060;-66
2023/01/26 06:46:04;;;;;;;60.90;21.73;;;1.00;99.90;;;;;;4992543;28;20049;-65
2023/01/26 06:48:32;;;;;;;66.80;20.88;;;1.00;99.90;;;;;;4994157;28;20096;-65
2023/01/26 06:51:17;;;;;;;64.30;20.92;;;1.00;99.90;;;;;;4992259;28;20048;-65
2023/01/26 06:53:53;;;;;;;85.63;22.98;;;1.00;99.90;;;;;;5007334;28;20069;-64
2023/01/26 06:56:20;;;;;;;77.55;21.77;;;1.00;99.90;;;;;;4989407;28;20049;-65
2023/01/26 06:58:46;;;;;;;69.65;22.23;;;0.90;99.90;;;;;;4988970;28;20082;-65
2023/01/26 07:01:22;;;;;;;62.97;21.42;;;1.00;99.90;;;;;;4987023;28;20406;-66
2023/01/26 07:03:48;;;;;;;72.18;20.55;;;1.00;99.90;;;;;;5006382;28;20046;-65
2023/01/26 07:06:14;;;;;;;62.83;22.45;;;1.00;99.90;;;;;;4988252;28;20038;-66
2023/01/26 07:08:40;;;;;;;70.20;21.75;;;1.00;99.90;;;;;;4972751;28;20085;-65
2023/01/26 07:11:06;;;;;;;84.95;23.48;;;1.00;99.90;;;;;;4988629;28;20033;-65
2023/01/26 07:13:32;;;;;;;70.53;22.27;;;1.00;99.90;;;;;;4991686;28;20375;-65
2023/01/26 07:16:03;;;;;;;87.80;23.50;;;1.00;99.90;;;;;;4991811;28;20112;-65
2023/01/26 07:18:29;;;;;;;62.35;22.60;;;1.00;99.90;;;;;;4997478;28;20038;-65
2023/01/26 07:21:00;;;;;;;75.75;22.75;;;1.00;99.90;;;;;;4988964;28;20057;-65
2023/01/26 07:23:26;;;;;;;113.70;25.00;;;1.00;99.90;;;;;;4988195;28;20099;-65
2023/01/26 07:25:51;;;;;;;88.25;22.88;;;1.00;99.90;;;;;;5009613;28;20518;-65
2023/01/26 07:28:17;;;;;;;104.53;25.90;;;1.00;99.90;;;;;;4992020;28;20196;-65
2023/01/26 07:30:43;;;;;;;77.00;23.27;;;1.10;99.90;;;;;;4976454;28;20038;-64
2023/01/26 07:33:09;;;;;;;75.88;22.15;;;1.10;99.90;;;;;;4991849;28;20512;-65
2023/01/26 07:35:35;;;;;;;106.63;25.40;;;1.10;99.90;;;;;;4991131;28;20072;-65
2023/01/26 07:38:03;;;;;;;76.43;24.83;;;1.10;99.90;;;;;;4991416;28;20044;-65
2023/01/26 07:40:29;;;;;;;90.93;24.92;;;1.10;99.90;;;;;;4973149;28;20043;-65
2023/01/26 07:42:55;;;;;;;99.35;25.05;;;1.10;99.90;;;;;;4986492;28;20037;-65
2023/01/26 07:45:21;;;;;;;106.03;25.30;;;1.10;99.90;;;;;;5008279;28;20506;-65
2023/01/26 07:47:47;;;;;;;98.78;24.05;;;1.10;99.90;;;;;;5008428;28;20137;-65
2023/01/26 07:50:13;;;;;;;70.00;22.98;;;1.10;99.90;;;;;;4989659;28;20041;-65
2023/01/26 07:52:39;;;;;;;95.05;25.30;;;1.10;99.90;;;;;;4990526;28;20073;-65
2023/01/26 07:55:05;;;;;;;75.38;24.35;;;1.10;99.90;;;;;;5008959;28;20532;-65
2023/01/26 07:57:32;;;;;;;84.60;23.33;;;1.10;99.90;;;;;;4990217;28;20042;-65
2023/01/26 07:59:58;;;;;;;93.22;24.65;;;1.10;99.90;;;;;;5009438;28;20041;-66
2023/01/26 08:02:24;;;;;;;129.50;26.65;;;1.10;99.90;;;;;;4988861;28;20042;-65
2023/01/26 08:04:50;;;;;;;99.57;25.52;;;1.10;99.90;;;;;;4990698;28;20050;-65
2023/01/26 08:07:15;;;;;;;94.93;25.38;;;1.10;99.90;;;;;;4985565;28;20441;-65
2023/01/26 08:09:41;;;;;;;105.63;26.75;;;1.10;99.90;;;;;;4986757;28;20073;-65
2023/01/26 08:12:07;;;;;;;114.95;24.70;;;1.10;99.90;;;;;;5006934;28;20037;-65
2023/01/26 08:14:33;;;;;;;107.00;24.95;;;1.10;99.90;;;;;;5009256;28;20032;-65
2023/01/26 08:16:58;;;;;;;118.13;23.52;;;1.10;99.90;;;;;;5008685;28;20033;-65
2023/01/26 08:19:24;;;;;;;141.63;25.80;;;1.10;99.90;;;;;;4989539;28;20049;-65
2023/01/26 08:21:51;;;;;;;202.68;28.83;;;1.10;99.90;;;;;;4990800;28;20141;-65
2023/01/26 08:24:17;;;;;;;214.73;29.38;;;1.10;99.90;;;;;;4991015;28;20038;-66
2023/01/26 08:26:43;;;;;;;188.45;26.80;;;1.10;99.90;;;;;;5008909;28;20050;-65
2023/01/26 08:29:09;;;;;;;226.85;28.45;;;1.10;99.90;;;;;;4991148;28;20045;-65
2023/01/26 08:31:34;;;;;;;138.95;24.75;;;1.10;99.90;;;;;;4991134;28;20108;-65
2023/01/26 08:34:00;;;;;;;176.32;25.98;;;1.10;99.90;;;;;;5012785;28;20034;-66
2023/01/26 08:36:27;;;;;;;212.75;26.85;;;1.10;99.90;;;;;;5013032;28;20045;-65
2023/01/26 08:38:53;;;;;;;196.65;25.35;;;1.10;99.90;;;;;;4994855;28;20100;-65
2023/01/26 08:41:19;;;;;;;214.57;27.38;;;1.20;99.90;;;;;;5012388;28;20073;-65
2023/01/26 08:43:44;;;;;;;202.38;25.77;;;1.10;99.90;;;;;;5012859;28;20046;-65
2023/01/26 08:46:10;;;;;;;261.40;28.13;;;1.20;99.90;;;;;;4994799;28;20044;-65
2023/01/26 08:48:36;;;;;;;127.32;23.83;;;1.20;99.90;;;;;;4994942;28;20054;-65
2023/01/26 08:51:04;;;;;;;139.35;23.63;;;1.20;99.90;;;;;;4984848;28;20046;-65
2023/01/26 08:53:31;;;;;;;226.55;26.45;;;1.30;99.90;;;;;;5009447;28;20113;-65
2023/01/26 08:55:59;;;;;;;155.75;25.10;;;1.30;99.90;;;;;;5012328;28;20383;-65
2023/01/26 08:58:25;;;;;;;209.45;28.08;;;1.60;99.90;;;;;;4995037;28;20081;-65
2023/01/26 09:00:50;;;;;;;229.50;31.80;;;1.90;99.90;;;;;;5012111;28;20190;-65
2023/01/26 09:03:16;;;;;;;292.90;34.05;;;2.30;99.90;;;;;;4994684;28;20121;-65
2023/01/26 09:05:42;;;;;;;331.77;36.40;;;2.50;99.90;;;;;;4993843;28;20050;-65
2023/01/26 09:08:08;;;;;;;488.13;54.25;;;2.70;99.90;;;;;;5012113;28;20117;-66
2023/01/26 09:10:37;;;;;;;348.58;43.42;;;3.10;99.90;;;;;;5012511;28;20038;-66
2023/01/26 09:13:03;;;;;;;157.32;27.48;;;3.40;99.90;;;;;;4994415;28;20046;-64
2023/01/26 09:15:28;;;;;;;206.32;33.08;;;3.70;99.90;;;;;;5011849;28;20184;-65
2023/01/26 09:17:54;;;;;;;165.90;28.98;;;3.70;99.90;;;;;;5012241;28;20076;-65
2023/01/26 09:20:20;;;;;;;299.17;36.92;;;3.90;99.90;;;;;;5011392;28;20065;-66
2023/01/26 09:22:46;;;;;;;743.33;77.75;;;4.40;99.90;;;;;;4992166;28;20046;-66
2023/01/26 09:25:13;;;;;;;183.75;29.20;;;5.20;99.90;;;;;;4993666;28;20557;-65
2023/01/26 09:27:39;;;;;;;848.90;77.18;;;5.90;99.90;;;;;;5011256;28;20121;-65
2023/01/26 09:30:06;;;;;;;1120.07;112.95;;;6.60;99.90;;;;;;5011064;28;20049;-65
2023/01/26 09:32:32;;;;;;;744.08;66.60;;;7.10;99.90;;;;;;4993956;28;20046;-65
2023/01/26 09:34:58;;;;;;;294.27;34.00;;;7.70;99.90;;;;;;5010674;28;20104;-64
2023/01/26 09:37:23;;;;;;;202.65;29.15;;;8.20;99.90;;;;;;5011500;28;20034;-65
2023/01/26 09:39:49;;;;;;;125.63;18.73;;;8.50;99.90;;;;;;5011816;28;20465;-65
2023/01/26 09:42:36;;;;;;;51.45;16.02;;;8.50;99.90;;;;;;4992633;28;20409;-67
2023/01/26 09:45:11;;;;;;;52.92;13.00;;;8.70;99.90;;;;;;5010684;28;20049;-65
2023/01/26 09:48:18;;;;;;;37.33;10.95;;;8.90;99.90;;;;;;4994187;28;20373;-65
2023/01/26 09:51:08;;;;;;;33.42;9.82;;;8.10;99.90;;;;;;4994053;28;20108;-65
2023/01/26 09:53:43;;;;;;;42.42;9.40;;;7.10;99.90;;;;;;5010409;28;20050;-65
2023/01/26 09:56:13;;;;;;;;;;;6.80;99.90;;;;;;5010534;28;20037;-65
2023/01/26 09:58:41;;;;;;;33.28;9.30;;;7.30;99.90;;;;;;5009952;28;20008;-65
2023/01/26 10:01:40;;;;;;;41.67;9.82;;;7.90;99.90;;;;;;4993628;28;20160;-65
2023/01/26 10:04:35;;;;;;;30.92;7.88;;;8.70;99.90;;;;;;4992717;28;20085;-65
2023/01/26 10:07:04;;;;;;;33.28;8.68;;;9.30;99.90;;;;;;5008997;28;20034;-65
2023/01/26 10:09:34;;;;;;;206.80;20.05;;;9.80;99.90;;;;;;5009104;28;20045;-65
2023/01/26 10:12:03;;;;;;;23.02;6.72;;;10.40;99.90;;;;;;5011217;28;20034;-65
2023/01/26 10:15:00;;;;;;;28.60;7.68;;;10.80;99.90;;;;;;5010522;28;20048;-66
2023/01/26 10:17:45;;;;;;;25.45;7.32;;;11.20;99.90;;;;;;5006664;28;20120;-65
2023/01/26 10:20:34;;;;;;;28.17;6.25;;;11.40;99.90;;;;;;5009238;28;20044;-66
2023/01/26 10:23:05;;;;;;;33.40;6.57;;;11.00;99.90;;;;;;5007304;28;20045;-65
2023/01/26 10:25:39;;;;;;;30.65;6.57;;;10.30;99.90;;;;;;5010656;28;20037;-66
2023/01/26 10:28:17;;;;;;;27.60;6.15;;;9.50;99.90;;;;;;5008944;28;20414;-65
2023/01/26 10:30:45;;;;;;;26.65;5.35;;;8.80;99.90;;;;;;4989490;28;20042;-66
2023/01/26 10:33:29;;;;;;;27.52;5.70;;;8.20;99.90;;;;;;5010030;28;20116;-65
2023/01/26 10:35:55;;;;;;;34.40;4.80;;;7.70;99.90;;;;;;4989038;28;20133;-65
2023/01/26 10:38:27;;;;;;;29.05;4.25;;;7.40;99.90;;;;;;4991868;28;20128;-66
2023/01/26 10:40:53;;;;;;;23.70;4.88;;;7.30;99.90;;;;;;5007823;28;20080;-65
2023/01/26 10:43:19;;;;;;;35.22;5.38;;;7.20;99.90;;;;;;4992126;28;20116;-66
2023/01/26 10:45:46;;;;;;;31.48;5.18;;;7.10;99.90;;;;;;5010107;28;20470;-65
2023/01/26 10:48:25;;;;;;;28.02;4.32;;;7.00;99.90;;;;;;4988577;28;20050;-66
2023/01/26 10:50:52;;;;;;;26.92;4.07;;;7.00;99.90;;;;;;4973782;28;20061;-65
2023/01/26 10:53:27;;;;;;;34.25;4.95;;;7.00;99.90;;;;;;5007731;28;20430;-65
2023/01/26 10:56:10;;;;;;;33.80;4.38;;;7.10;99.90;;;;;;4988227;28;20119;-66
2023/01/26 10:58:54;;;;;;;26.63;4.25;;;7.20;99.90;;;;;;4996038;28;20054;-65
2023/01/26 11:01:26;;;;;;;23.42;4.38;;;7.20;99.90;;;;;;5007963;28;20490;-65
2023/01/26 11:04:12;;;;;;;24.90;4.22;;;7.20;99.90;;;;;;4991856;28;20144;-65
2023/01/26 11:06:38;;;;;;;30.75;4.68;;;7.20;99.90;;;;;;5010496;28;20038;-65
2023/01/26 11:09:20;;;;;;;29.77;4.50;;;7.10;99.90;;;;;;5009752;28;20572;-65
2023/01/26 11:11:59;;;;;;;32.20;5.10;;;7.10;99.90;;;;;;4993605;28;20056;-65
2023/01/26 11:14:26;;;;;;;37.58;4.53;;;7.10;99.90;;;;;;5010986;28;20129;-65
2023/01/26 11:17:03;;;;;;;36.83;4.13;;;7.10;99.90;;;;;;5011671;28;20037;-65
2023/01/26 11:19:46;;;;;;;29.20;4.88;;;7.10;99.90;;;;;;5009237;28;20049;-65
2023/01/26 11:22:18;;;;;;;26.08;3.78;;;7.00;99.90;;;;;;4991423;28;20049;-65
2023/01/26 11:25:05;;;;;;;33.33;4.53;;;7.00;99.90;;;;;;5008895;28;20041;-65
2023/01/26 11:28:11;;;;;;;23.33;4.07;;;6.90;99.90;;;;;;5005585;28;20061;-65
2023/01/26 11:31:21;;;;;;;31.05;4.35;;;6.90;99.90;;;;;;5009888;28;20486;-65
2023/01/26 11:33:50;;;;;;;30.80;4.03;;;7.10;99.90;;;;;;4992072;28;20077;-65
2023/01/26 11:36:27;;;;;;;32.97;4.10;;;7.20;99.90;;;;;;5008475;28;20100;-65
2023/01/26 11:39:15;;;;;;;21.50;2.88;;;7.20;99.90;;;;;;4986562;28;20045;-65
2023/01/26 11:41:56;;;;;;;27.27;4.35;;;7.20;99.90;;;;;;4990063;28;20050;-65
2023/01/26 11:44:57;;;;;;;28.30;3.95;;;7.20;99.90;;;;;;5008841;28;20041;-65
2023/01/26 11:47:54;;;;;;;25.45;3.25;;;7.40;99.90;;;;;;5009195;28;20034;-66
2023/01/26 11:50:34;;;;;;;19.70;3.30;;;7.40;99.90;;;;;;4996393;28;20072;-65
2023/01/26 11:53:19;;;;;;;20.40;2.90;;;7.40;99.90;;;;;;5008412;28;20033;-65
2023/01/26 11:56:03;;;;;;;;;;;7.40;99.90;;;;;;5009428;28;20506;-65
2023/01/26 11:58:40;;;;;;;24.50;3.20;;;7.40;99.90;;;;;;5007147;28;19995;-66
2023/01/26 12:01:27;;;;;;;22.48;3.85;;;7.40;99.90;;;;;;4988965;28;20479;-65
2023/01/26 12:03:55;;;;;;;24.17;2.92;;;7.40;99.90;;;;;;5007532;28;20064;-65
2023/01/26 12:06:52;;;;;;;22.50;2.65;;;7.50;99.90;;;;;;5007861;28;20390;-66
2023/01/26 12:09:43;;;;;;;19.80;3.08;;;7.50;99.90;;;;;;4983259;28;20064;-65
2023/01/26 12:12:15;;;;;;;19.67;2.80;;;7.50;99.90;;;;;;4975159;28;20034;-65
2023/01/26 12:14:41;;;;;;;17.08;2.40;;;7.50;99.90;;;;;;5003645;28;20050;-65
2023/01/26 12:17:53;;;;;;;18.33;3.25;;;7.60;99.90;;;;;;4994570;28;20064;-67
2023/01/26 12:20:24;;;;;;;17.63;2.55;;;7.60;99.90;;;;;;4978808;28;20137;-68
2023/01/26 12:23:13;;;;;;;18.85;2.45;;;7.70;99.90;;;;;;5009679;28;20049;-68
2023/01/26 12:25:45;;;;;;;21.10;2.78;;;7.90;99.90;;;;;;5004401;28;20216;-68
2023/01/26 12:28:28;;;;;;;14.48;2.28;;;7.90;99.90;;;;;;4996903;28;20058;-67
2023/01/26 12:31:09;;;;;;;15.10;2.45;;;8.00;99.90;;;;;;5011769;28;20047;-68
2023/01/26 12:33:36;;;;;;;20.65;2.35;;;8.10;99.90;;;;;;4997031;28;20462;-68
2023/01/26 12:36:18;;;;;;;17.80;2.65;;;8.10;99.90;;;;;;4993633;28;20129;-68
2023/01/26 12:38:49;;;;;;;15.38;1.98;;;8.10;99.90;;;;;;5011838;28;20050;-68
2023/01/26 12:41:56;;;;;;;16.40;2.88;;;8.10;99.90;;;;;;5011287;28;20100;-68
2023/01/26 12:44:41;;;;;;;13.68;1.98;;;8.10;99.90;;;;;;4982752;28;20046;-68
2023/01/26 12:47:20;;;;;;;16.33;2.05;;;8.10;99.90;;;;;;5013017;28;20034;-67
2023/01/26 12:49:58;;;;;;;15.05;2.42;;;8.10;99.90;;;;;;5009890;28;20062;-68
2023/01/26 12:52:35;;;;;;;14.13;1.75;;;8.10;99.90;;;;;;4995116;28;20045;-68
2023/01/26 12:55:22;;;;;;;8.73;1.33;;;8.00;99.90;;;;;;4994834;28;20041;-68
2023/01/26 12:58:01;;;;;;;10.10;1.77;;;7.90;99.90;;;;;;5013379;28;20111;-67
2023/01/26 13:00:35;;;;;;;10.23;1.80;;;7.90;99.90;;;;;;4994328;28;20052;-68
2023/01/26 13:03:24;;;;;;;16.77;2.72;;;8.00;99.90;;;;;;5013209;28;20520;-68
2023/01/26 13:05:58;;;;;;;15.63;2.25;;;8.00;99.90;;;;;;4994259;28;20129;-69
2023/01/26 13:08:30;;;;;;;14.88;2.00;;;8.00;99.90;;;;;;5012891;28;20093;-68
2023/01/26 13:11:00;;;;;;;18.30;2.25;;;8.00;99.90;;;;;;5013232;28;20038;-68
2023/01/26 13:13:33;;;;;;;14.95;2.50;;;8.00;99.90;;;;;;5013956;28;20316;-68
2023/01/26 13:16:19;;;;;;;12.60;1.33;;;8.00;99.90;;;;;;5012079;28;20117;-68
2023/01/26 13:18:50;;;;;;;11.05;1.45;;;8.00;99.90;;;;;;4986831;28;20087;-68
2023/01/26 13:21:41;;;;;;;20.35;1.90;;;8.10;99.90;;;;;;5016113;28;20045;-68
2023/01/26 13:24:16;;;;;;;15.82;1.95;;;8.00;99.90;;;;;;5015581;28;20034;-68
2023/01/26 13:26:46;;;;;;;14.20;2.03;;;8.00;99.90;;;;;;5020116;28;20577;-68
2023/01/26 13:29:31;;;;;;;11.10;2.35;;;7.90;99.90;;;;;;5020019;28;20509;-68
2023/01/26 13:32:17;;;;;;;16.67;2.08;;;7.90;99.90;;;;;;5016481;28;20548;-68
2023/01/26 13:34:46;;;;;;;13.30;1.60;;;7.90;99.90;;;;;;5019939;28;20117;-69
2023/01/26 13:37:41;;;;;;;13.02;2.28;;;7.90;99.90;;;;;;5020447;28;20049;-68
2023/01/26 13:40:18;;;;;;;;;;;7.90;99.90;;;;;;4989059;28;20173;-69